Hordafor III — LLVC — position and weather

sailwx.info

Track history (hours):
 
Tides and Currents Weather Stations Pressure Air Temp Water Temp Dewpoint Dewpoint Depression Visibility Wind Speed Wind Dir Waves Ship Positions

Hordafor III

Last reported at 2017-May-27 13:30 UTC. Time now 2017-May-27 13:44 UTC.
Position N 63°03' E 007°27'.

Length 50 m; draft 6 m.

Type: Cargo ship. MMSI: 258044000.

Date/timePositionNaut miles runAvg speedWind from/ knotsBaromVisibWave heightAir tempDewpointWater temp
2017-May-27 13:30N 63°03' E 007°27'0 0.0
2017-May-27 13:00N 63°03' E 007°27'0 0.0
2017-May-27 12:30N 63°03' E 007°27'0 0.0
2017-May-27 12:00N 63°03' E 007°27'0 0.0
2017-May-27 11:30N 63°03' E 007°27'0 0.0
2017-May-27 11:00N 63°03' E 007°27'0 0.0
2017-May-27 10:30N 63°03' E 007°27'0 0.1
2017-May-27 10:01N 63°03' E 007°27'4 8.2
2017-May-27 09:30N 63°03' E 007°18'5 9.4
2017-May-27 09:00N 63°01' E 007°08'5 9.4
2017-May-27 08:30N 62°60' E 006°58'5 9.1
2017-May-27 08:00N 62°57' E 006°50'4 8.9
2017-May-27 07:30N 62°53' E 006°44'4 9.1
2017-May-27 07:01N 62°50' E 006°39'5 9.2
2017-May-27 06:30N 62°46' E 006°34'5 9.1
2017-May-27 05:59N 62°42' E 006°28'4 9.1
2017-May-27 05:30N 62°38' E 006°22'5 9.6
2017-May-27 05:00N 62°35' E 006°14'5 9.1
2017-May-27 04:30N 62°31' E 006°09'4 8.8
2017-May-27 04:00N 62°27' E 006°04'4 8.8
2017-May-27 03:30N 62°23' E 006°06'4 8.2
2017-May-27 03:00N 62°19' E 006°04'5 9.9
2017-May-27 02:30N 62°15' E 005°57'5 9.0
2017-May-27 02:00N 62°12' E 005°49'5 9.5
2017-May-27 01:30N 62°11' E 005°40'5 9.6
2017-May-27 00:59N 62°12' E 005°29'4 9.0
2017-May-27 00:30N 62°11' E 005°20'5 9.7
2017-May-27 00:00N 62°13' E 005°12'5 9.4
2017-May-26 23:30N 62°10' E 005°04'510.0
2017-May-26 23:00N 62°05' E 005°07'510.0
2017-May-26 22:30N 62°00' E 005°09'5 9.5
2017-May-26 22:00N 61°56' E 005°07'4 8.6
2017-May-26 21:30N 61°52' E 005°13'3 6.6
2017-May-26 21:01N 61°49' E 005°12'510.4
2017-May-26 20:30N 61°46' E 005°03'510.0
2017-May-26 20:00N 61°42' E 004°58'510.2
2017-May-26 19:30N 61°37' E 004°58'5 9.5
2017-May-26 19:00N 61°32' E 004°60'510.0
2017-May-26 18:30N 61°27' E 004°56'510.6
2017-May-26 18:00N 61°23' E 004°49'510.6
2017-May-26 17:30N 61°18' E 004°48'510.3
2017-May-26 17:00N 61°13' E 004°42'510.3
2017-May-26 16:30N 61°08' E 004°45'510.0
2017-May-26 16:00N 61°03' E 004°44'510.2
2017-May-26 15:30N 60°58' E 004°45'510.4
2017-May-26 15:00N 60°53' E 004°46'1010.0
2017-May-26 14:00N 60°43' E 004°49'510.5
2017-May-26 13:30N 60°38' E 004°53'510.4
2017-May-26 13:01N 60°34' E 004°56'510.4
2017-May-26 12:30N 60°29' E 005°00'510.1
2017-May-26 12:01N 60°25' E 005°06'4 8.7
2017-May-26 11:30N 60°21' E 005°10'4 9.0
2017-May-26 11:00N 60°16' E 005°09'510.3
2017-May-26 10:30N 60°12' E 005°13'510.4
2017-May-26 10:00N 60°07' E 005°18'510.4
2017-May-26 09:30N 60°02' E 005°20'510.4
2017-May-26 09:00N 59°57' E 005°25'1 1.8
2017-May-26 08:30N 59°57' E 005°26'3 5.9
2017-May-26 08:01N 59°59' E 005°22'5 9.3
2017-May-26 07:30N 60°00' E 005°13'3 6.0
2017-May-26 07:00N 60°00' E 005°07'0 0.0
2017-May-26 06:30N 60°00' E 005°07'0 0.0
2017-May-26 06:00N 60°00' E 005°07'0 0.0
2017-May-26 05:30N 60°00' E 005°07'2 4.5
2017-May-26 05:00N 60°02' E 005°09'4 8.1
2017-May-26 04:30N 60°06' E 005°13'0 0.0
2017-May-26 04:00N 60°06' E 005°13'0 0.0
2017-May-26 03:30N 60°06' E 005°13'0 0.0
2017-May-26 03:00N 60°06' E 005°13'0 0.0
2017-May-26 02:29N 60°06' E 005°13'0 0.0
2017-May-26 02:00N 60°06' E 005°13'0 0.0
2017-May-26 01:30N 60°06' E 005°13'0 0.0
2017-May-26 00:59N 60°06' E 005°13'0 0.0
2017-May-26 00:30N 60°06' E 005°13'0 0.0
2017-May-26 00:00N 60°06' E 005°13'0 0.0
2017-May-25 23:30N 60°06' E 005°13'0 0.0
2017-May-25 23:00N 60°06' E 005°13'0 0.0
2017-May-25 22:29N 60°06' E 005°13'0 0.0
2017-May-25 22:00N 60°06' E 005°13'0 0.0
2017-May-25 21:30N 60°06' E 005°13'0 0.0
2017-May-25 21:00N 60°06' E 005°13'0 0.0
2017-May-25 20:30N 60°06' E 005°13'0 0.0
2017-May-25 20:00N 60°06' E 005°13'0 0.0
2017-May-25 19:30N 60°06' E 005°13'0 0.0
2017-May-25 19:00N 60°06' E 005°13'0 0.0
2017-May-25 18:30N 60°06' E 005°13'0 0.0
2017-May-25 18:00N 60°06' E 005°13'0 0.0
2017-May-25 17:30N 60°06' E 005°13'0 0.0
2017-May-25 17:00N 60°06' E 005°13'0 0.0
2017-May-25 16:30N 60°06' E 005°13'0 0.0
2017-May-25 16:00N 60°06' E 005°13'2 3.9
2017-May-25 15:30N 60°04' E 005°10'5 9.7
2017-May-25 15:00N 59°60' E 005°06'1110.6
2017-May-25 14:01N 59°51' E 005°16'510.1
2017-May-25 13:30N 59°46' E 005°21'5 9.8
2017-May-25 13:00N 59°42' E 005°24'510.2
2017-May-25 12:30N 59°37' E 005°18'510.2
2017-May-25 12:00N 59°33' E 005°14'5 9.7
2017-May-25 11:30N 59°28' E 005°13'5 9.1
2017-May-25 11:00N 59°24' E 005°17'5 9.2
2017-May-25 10:30N 59°19' E 005°20'5 9.3
2017-May-25 10:00N 59°15' E 005°22'4 9.1
2017-May-25 09:31N 59°12' E 005°29'510.5
2017-May-25 09:00N 59°10' E 005°38'510.6
2017-May-25 08:30N 59°07' E 005°47'3 6.8
2017-May-25 08:00N 59°04' E 005°50'1 1.3
2017-May-25 07:30N 59°05' E 005°51'510.5
2017-May-25 07:00N 59°10' E 005°53'510.5
2017-May-25 06:30N 59°15' E 005°55'4 7.1
2017-May-25 06:00N 59°18' E 005°59'0 0.4
2017-May-25 05:30N 59°18' E 005°60'4 8.1
2017-May-25 05:00N 59°18' E 005°52'4 8.7
2017-May-25 04:30N 59°16' E 005°44'4 8.4
2017-May-25 04:00N 59°14' E 005°37'4 8.2
2017-May-25 03:30N 59°12' E 005°30'4 8.6
2017-May-25 03:00N 59°15' E 005°25'4 7.4
2017-May-25 02:30N 59°18' E 005°20'5 9.6
2017-May-25 02:00N 59°22' E 005°18'3 7.0
2017-May-25 01:30N 59°25' E 005°14'5 9.9
2017-May-25 01:00N 59°30' E 005°13'5 9.8
2017-May-25 00:30N 59°35' E 005°16'5 9.5
2017-May-25 00:00N 59°39' E 005°20'4 8.9
2017-May-24 23:30N 59°43' E 005°24'510.1
2017-May-24 23:00N 59°48' E 005°20'510.9
2017-May-24 22:30N 59°52' E 005°14'510.7
2017-May-24 22:00N 59°57' E 005°09'4 6.9
2017-May-24 21:30N 60°00' E 005°07'0 0.5
2017-May-24 21:00N 60°00' E 005°07'0 0.0
2017-May-24 20:30N 60°00' E 005°07'0 0.0
2017-May-24 20:00N 60°00' E 005°07'0 0.0
2017-May-24 19:30N 60°00' E 005°07'0 0.0
2017-May-24 19:00N 60°00' E 005°07'0 0.0
2017-May-24 18:29N 60°00' E 005°07'0 0.0
2017-May-24 18:00N 60°00' E 005°07'0 0.0
2017-May-24 17:30N 60°00' E 005°07'0 0.0
2017-May-24 17:00N 60°00' E 005°07'0 0.0
2017-May-24 16:29N 60°00' E 005°07'0 0.0
2017-May-24 16:00N 60°00' E 005°07'0 0.0
2017-May-24 15:30N 60°00' E 005°07'0 0.0
2017-May-24 15:01N 60°00' E 005°07'0 0.0
2017-May-24 14:00N 60°00' E 005°07'0 0.0
2017-May-24 13:30N 60°00' E 005°07'0 0.0
2017-May-24 13:00N 60°00' E 005°07'0 0.0
2017-May-24 12:30N 60°00' E 005°07'0 0.0
2017-May-24 12:00N 60°00' E 005°07'0 0.0
2017-May-24 11:30N 60°00' E 005°07'0 0.0
2017-May-24 11:00N 60°00' E 005°07'0 0.0
2017-May-24 10:30N 60°00' E 005°07'0 0.0
2017-May-24 10:01N 60°00' E 005°07'0 0.0
2017-May-24 09:31N 60°00' E 005°07'0 0.0
2017-May-24 09:00N 60°00' E 005°07'0 0.0
2017-May-24 08:30N 60°00' E 005°07'0 0.0
2017-May-24 08:00N 60°00' E 005°07'0 0.0
2017-May-24 07:30N 60°00' E 005°07'0 0.0
2017-May-24 07:00N 60°00' E 005°07'0 0.0
2017-May-24 06:29N 60°00' E 005°07'0 0.0
2017-May-24 06:00N 60°00' E 005°07'0 0.0
2017-May-24 05:30N 60°00' E 005°07'0 0.0
2017-May-24 05:00N 60°00' E 005°07'0 0.0
2017-May-24 04:29N 60°00' E 005°07'0 0.0
2017-May-24 04:00N 60°00' E 005°07'0 0.0
2017-May-24 03:30N 60°00' E 005°07'0 0.0
2017-May-24 03:00N 60°00' E 005°07'0 0.0
2017-May-24 02:30N 60°00' E 005°07'0 0.0
2017-May-24 02:00N 60°00' E 005°07'0 0.0
2017-May-24 01:30N 60°00' E 005°07'0 0.0
2017-May-24 01:01N 60°00' E 005°07'0 0.0
2017-May-24 00:29N 60°00' E 005°07'0 0.0
2017-May-24 00:00N 60°00' E 005°07'0 0.0
2017-May-23 23:29N 60°00' E 005°07'0 0.0
2017-May-23 23:00N 60°00' E 005°07'0 0.0
2017-May-23 22:30N 60°00' E 005°07'0 0.0
2017-May-23 22:00N 60°00' E 005°07'0 0.1
2017-May-23 21:30N 60°00' E 005°07'0 0.0
2017-May-23 21:00N 60°00' E 005°07'0 0.0
2017-May-23 20:31N 60°00' E 005°07'0 0.0
2017-May-23 20:00N 60°00' E 005°07'0 0.0
2017-May-23 19:30N 60°00' E 005°07'0 0.0
2017-May-23 19:00N 60°00' E 005°07'0 0.1
2017-May-23 18:30N 60°00' E 005°07'0 0.1
2017-May-23 18:00N 60°00' E 005°07'0 0.0
2017-May-23 17:30N 60°00' E 005°07'1 1.6
2017-May-23 17:01N 60°01' E 005°08'5 9.5
2017-May-23 16:30N 60°05' E 005°11'5 9.5
2017-May-23 16:00N 60°10' E 005°11'3 6.6
2017-May-23 15:30N 60°13' E 005°13'1 2.6
2017-May-23 15:00N 60°12' E 005°12'510.2
2017-May-23 14:30N 60°07' E 005°11'5 4.7
2017-May-23 13:30N 60°03' E 005°07'2 4.4
2017-May-23 13:00N 60°05' E 005°07'0 0.0
2017-May-23 12:30N 60°05' E 005°07'0 0.0
2017-May-23 12:00N 60°05' E 005°07'0 0.0
2017-May-23 11:30N 60°05' E 005°07'0 0.0
2017-May-23 11:01N 60°05' E 005°07'0 0.0
2017-May-23 10:30N 60°05' E 005°07'0 0.0
2017-May-23 10:00N 60°05' E 005°07'0 0.0
2017-May-23 09:30N 60°05' E 005°07'0 0.0
2017-May-23 09:00N 60°05' E 005°07'0 0.0
2017-May-23 08:31N 60°05' E 005°07'0 0.0
2017-May-23 08:00N 60°05' E 005°07'0 0.0
2017-May-23 07:30N 60°05' E 005°07'0 0.0
2017-May-23 07:00N 60°05' E 005°07'0 0.0
2017-May-23 06:30N 60°05' E 005°07'2 3.8
2017-May-23 06:00N 60°05' E 005°11'1 2.6
2017-May-23 05:30N 60°06' E 005°13'0 0.0
2017-May-23 05:00N 60°06' E 005°13'0 0.0
2017-May-23 04:30N 60°06' E 005°13'0 0.0
2017-May-23 04:00N 60°06' E 005°13'0 0.0
2017-May-23 03:31N 60°06' E 005°13'0 0.0
2017-May-23 03:00N 60°06' E 005°13'0 0.0
2017-May-23 02:30N 60°06' E 005°13'0 0.0
2017-May-23 02:00N 60°06' E 005°13'0 0.0
2017-May-23 01:30N 60°06' E 005°13'0 0.0
2017-May-23 01:00N 60°06' E 005°13'0 0.0
2017-May-23 00:30N 60°06' E 005°13'0 0.0
2017-May-23 00:00N 60°06' E 005°13'0 0.0
2017-May-22 23:30N 60°06' E 005°13'0 0.0
2017-May-22 22:59N 60°06' E 005°13'0 0.0
2017-May-22 22:30N 60°06' E 005°13'0 0.0
2017-May-22 22:00N 60°06' E 005°13'0 0.0
2017-May-22 21:30N 60°06' E 005°13'0 0.0
2017-May-22 21:00N 60°06' E 005°13'0 0.0
2017-May-22 20:30N 60°06' E 005°13'0 0.0
2017-May-22 20:00N 60°06' E 005°13'0 0.0
2017-May-22 19:30N 60°06' E 005°13'0 0.0
2017-May-22 19:00N 60°06' E 005°13'0 0.0
2017-May-22 18:30N 60°06' E 005°13'0 0.0
2017-May-22 18:00N 60°06' E 005°13'0 0.0
2017-May-22 17:29N 60°06' E 005°13'0 0.0
2017-May-22 17:00N 60°06' E 005°13'0 0.0
2017-May-22 16:30N 60°06' E 005°13'0 0.0
2017-May-22 16:00N 60°06' E 005°13'0 0.0
2017-May-22 15:30N 60°06' E 005°13'0 0.0
2017-May-22 14:59N 60°06' E 005°13'0 0.0
2017-May-22 14:00N 60°06' E 005°13'0 0.0
2017-May-22 13:31N 60°06' E 005°13'2 3.5
2017-May-22 13:00N 60°04' E 005°11'4 8.6
2017-May-22 12:30N 60°01' E 005°05'1 2.7
2017-May-22 11:59N 60°02' E 005°07'4 8.8
2017-May-22 11:29N 59°59' E 005°15'5 9.6
2017-May-22 11:00N 59°58' E 005°24'2 3.9
2017-May-22 10:30N 59°57' E 005°27'1 1.8
2017-May-22 10:00N 59°57' E 005°26'0 0.4
2017-May-22 09:30N 59°57' E 005°26'4 9.2
2017-May-22 09:00N 59°59' E 005°19'510.3
2017-May-22 08:30N 59°56' E 005°11'3 5.9
2017-May-22 08:00N 59°54' E 005°06'0 0.0
2017-May-22 07:30N 59°54' E 005°06'0 0.0
2017-May-22 07:01N 59°54' E 005°06'0 0.0
2017-May-22 06:30N 59°54' E 005°06'0 0.0
2017-May-22 06:00N 59°54' E 005°06'0 0.0
2017-May-22 05:30N 59°54' E 005°06'0 0.8
2017-May-22 05:00N 59°53' E 005°06'4 8.1
2017-May-22 04:30N 59°57' E 005°06'3 5.8
2017-May-22 04:00N 60°00' E 005°07'0 0.1
2017-May-22 03:30N 60°00' E 005°07'0 0.0
2017-May-22 03:00N 60°00' E 005°07'0 0.0
2017-May-22 02:30N 60°00' E 005°07'0 0.0
2017-May-22 02:00N 60°00' E 005°07'0 0.0
2017-May-22 01:30N 60°00' E 005°07'0 0.0
2017-May-22 01:00N 60°00' E 005°07'0 0.0
2017-May-22 00:30N 60°00' E 005°07'0 0.0
2017-May-22 00:00N 60°00' E 005°07'0 0.0
2017-May-21 23:30N 60°00' E 005°07'0 0.0
2017-May-21 23:00N 60°00' E 005°07'0 0.4
2017-May-21 22:30N 60°00' E 005°07'5 9.5
2017-May-21 22:00N 60°05' E 005°11'5 9.6
2017-May-21 21:30N 60°10' E 005°11'5 9.7
2017-May-21 21:00N 60°14' E 005°10'1 1.5
2017-May-21 20:30N 60°15' E 005°11'3 6.7
2017-May-21 20:00N 60°18' E 005°08'5 9.6
2017-May-21 19:30N 60°23' E 005°10'5 9.5
2017-May-21 19:00N 60°26' E 005°02'5 9.5
2017-May-21 18:30N 60°30' E 004°58'5 9.5
2017-May-21 18:00N 60°35' E 004°54'5 9.8
2017-May-21 17:29N 60°39' E 004°51'510.0
2017-May-21 17:00N 60°44' E 004°48'510.0
2017-May-21 16:30N 60°49' E 004°44'4 8.1
2017-May-21 16:00N 60°51' E 004°51'2 4.4
2017-May-21 15:29N 60°54' E 004°50'0 0.0
2017-May-21 15:00N 60°54' E 004°50'2 2.4
2017-May-21 14:00N 60°51' E 004°50'4 8.6
2017-May-21 13:30N 60°47' E 004°46'510.5
2017-May-21 13:00N 60°43' E 004°51'510.6
2017-May-21 12:30N 60°38' E 004°56'510.0
2017-May-21 12:00N 60°36' E 005°06'510.4
2017-May-21 11:30N 60°33' E 005°14'5 9.6
2017-May-21 11:00N 60°31' E 005°22'2 3.3
2017-May-21 10:30N 60°30' E 005°26'0 0.0
2017-May-21 10:00N 60°30' E 005°26'0 0.0
2017-May-21 09:30N 60°30' E 005°26'0 0.0
2017-May-21 09:00N 60°30' E 005°26'0 0.0
2017-May-21 08:30N 60°30' E 005°26'2 3.8
2017-May-21 08:00N 60°31' E 005°22'4 7.1
2017-May-21 07:30N 60°30' E 005°15'5 9.3
2017-May-21 07:00N 60°25' E 005°17'2 3.1
2017-May-21 06:30N 60°24' E 005°19'0 0.0
2017-May-21 06:00N 60°24' E 005°19'0 0.0
2017-May-21 05:30N 60°24' E 005°19'0 0.0
2017-May-21 05:00N 60°24' E 005°19'0 0.0
2017-May-21 04:30N 60°24' E 005°19'0 0.0
2017-May-21 04:00N 60°24' E 005°19'0 0.0
2017-May-21 03:30N 60°24' E 005°19'0 0.0
2017-May-21 03:00N 60°24' E 005°19'0 0.0
2017-May-21 02:30N 60°24' E 005°19'0 0.0
2017-May-21 02:00N 60°24' E 005°19'0 0.0
2017-May-21 01:30N 60°24' E 005°19'0 0.0
2017-May-21 01:00N 60°24' E 005°19'0 0.0
2017-May-21 00:30N 60°24' E 005°19'0 0.0
2017-May-21 00:00N 60°24' E 005°19'0 0.0
2017-May-20 23:30N 60°24' E 005°19'0 0.0
2017-May-20 23:00N 60°24' E 005°19'0 0.0
2017-May-20 22:31N 60°24' E 005°19'0 0.0
2017-May-20 22:00N 60°24' E 005°19'0 0.0
2017-May-20 21:31N 60°24' E 005°19'0 0.0
2017-May-20 21:00N 60°24' E 005°19'0 0.0
2017-May-20 20:31N 60°24' E 005°19'0 0.0
2017-May-20 20:01N 60°24' E 005°19'0 0.0
2017-May-20 19:31N 60°24' E 005°19'0 0.0
2017-May-20 19:00N 60°24' E 005°19'0 0.0
2017-May-20 18:30N 60°24' E 005°19'0 0.0
2017-May-20 18:00N 60°24' E 005°19'0 0.0
2017-May-20 17:30N 60°24' E 005°19'0 0.0
2017-May-20 17:00N 60°24' E 005°19'0 0.0
2017-May-20 16:30N 60°24' E 005°19'0 0.0
2017-May-20 16:00N 60°24' E 005°19'0 0.0
2017-May-20 15:30N 60°24' E 005°19'0 0.0
2017-May-20 15:00N 60°24' E 005°19'0 0.0
2017-May-20 14:30N 60°24' E 005°19'0 0.0
2017-May-20 13:30N 60°24' E 005°19'0 0.0
2017-May-20 13:00N 60°24' E 005°19'0 0.0
2017-May-20 12:30N 60°24' E 005°19'0 0.0
2017-May-20 12:00N 60°24' E 005°19'0 0.0
2017-May-20 11:30N 60°24' E 005°19'0 0.0
2017-May-20 11:00N 60°24' E 005°19'0 0.0
2017-May-20 10:30N 60°24' E 005°19'0 0.0
2017-May-20 10:00N 60°24' E 005°19'0 0.0
2017-May-20 09:30N 60°24' E 005°19'0 0.0
2017-May-20 09:00N 60°24' E 005°19'0 0.0
2017-May-20 08:30N 60°24' E 005°19'0 0.0
2017-May-20 08:00N 60°24' E 005°19'0 0.0
2017-May-20 07:30N 60°24' E 005°19'0 0.0
2017-May-20 07:00N 60°24' E 005°19'0 0.0
2017-May-20 06:30N 60°24' E 005°19'0 0.0
2017-May-20 06:00N 60°24' E 005°19'0 0.0
2017-May-20 05:30N 60°24' E 005°19'0 0.0
2017-May-20 05:01N 60°24' E 005°19'0 0.0
2017-May-20 04:30N 60°24' E 005°19'0 0.0
2017-May-20 04:01N 60°24' E 005°19'0 0.0
2017-May-20 03:31N 60°24' E 005°19'0 0.0
2017-May-20 03:00N 60°24' E 005°19'0 0.0
2017-May-20 02:31N 60°24' E 005°19'0 0.0
2017-May-20 02:00N 60°24' E 005°19'0 0.0
2017-May-20 01:30N 60°24' E 005°19'0 0.0
2017-May-20 01:00N 60°24' E 005°19'0 0.0
2017-May-20 00:30N 60°24' E 005°19'0 0.0
2017-May-19 23:59N 60°24' E 005°19'0 0.0
2017-May-19 23:30N 60°24' E 005°19'0 0.0
2017-May-19 23:00N 60°24' E 005°19'0 0.0
2017-May-19 22:31N 60°24' E 005°19'0 0.0
2017-May-19 22:00N 60°24' E 005°19'0 0.0
2017-May-19 21:30N 60°24' E 005°19'0 0.0
2017-May-19 21:00N 60°24' E 005°19'0 0.0
2017-May-19 20:30N 60°24' E 005°19'0 0.0
2017-May-19 20:00N 60°24' E 005°19'0 0.0
2017-May-19 19:30N 60°24' E 005°19'0 0.0
2017-May-19 19:00N 60°24' E 005°19'0 0.0
2017-May-19 18:30N 60°24' E 005°19'0 0.0
2017-May-19 18:00N 60°24' E 005°19'0 0.0
2017-May-19 17:30N 60°24' E 005°19'0 0.8
2017-May-19 17:00N 60°24' E 005°18'5 8.9
2017-May-19 16:30N 60°22' E 005°10'5 9.8
2017-May-19 16:00N 60°17' E 005°09'2 4.5
2017-May-19 15:29N 60°15' E 005°11'0 0.0
2017-May-19 15:00N 60°15' E 005°11'8 7.6
2017-May-19 14:00N 60°23' E 005°10'5 9.4
2017-May-19 13:30N 60°24' E 005°19'0 0.3
2017-May-19 13:00N 60°24' E 005°19'0 0.0
2017-May-19 12:30N 60°24' E 005°19'0 0.0
2017-May-19 12:00N 60°24' E 005°19'0 0.0
2017-May-19 11:30N 60°24' E 005°19'0 0.0
2017-May-19 11:00N 60°24' E 005°19'0 0.0
2017-May-19 10:30N 60°24' E 005°19'0 0.0
2017-May-19 10:00N 60°24' E 005°19'0 0.0
2017-May-19 09:30N 60°24' E 005°19'0 0.0
2017-May-19 09:00N 60°24' E 005°19'0 0.0
2017-May-19 08:30N 60°24' E 005°19'0 0.0
2017-May-19 08:01N 60°24' E 005°19'0 0.0
2017-May-19 07:31N 60°24' E 005°19'0 0.0
2017-May-19 07:00N 60°24' E 005°19'0 0.0
2017-May-19 06:31N 60°24' E 005°19'0 0.0
2017-May-19 06:01N 60°24' E 005°19'0 0.0
2017-May-19 05:31N 60°24' E 005°19'0 0.0
2017-May-19 05:01N 60°24' E 005°19'0 0.0
2017-May-19 04:31N 60°24' E 005°19'0 0.0
2017-May-19 04:01N 60°24' E 005°19'0 0.0
2017-May-19 03:30N 60°24' E 005°19'0 0.0
2017-May-19 03:00N 60°24' E 005°19'0 0.0
2017-May-19 02:30N 60°24' E 005°19'0 0.0
2017-May-19 02:00N 60°24' E 005°19'0 0.0
2017-May-19 01:31N 60°24' E 005°19'0 0.0
2017-May-19 01:00N 60°24' E 005°19'0 0.0
2017-May-19 00:30N 60°24' E 005°19'0 0.0
2017-May-19 00:00N 60°24' E 005°19'0 0.0
2017-May-18 23:30N 60°24' E 005°19'0 0.0
2017-May-18 23:00N 60°24' E 005°19'0 0.0
2017-May-18 22:30N 60°24' E 005°19'0 0.0
2017-May-18 22:00N 60°24' E 005°19'0 0.0
2017-May-18 21:30N 60°24' E 005°19'0 0.0
2017-May-18 21:00N 60°24' E 005°19'0 0.0
2017-May-18 20:30N 60°24' E 005°19'0 0.0
2017-May-18 20:00N 60°24' E 005°19'0 0.0
2017-May-18 19:30N 60°24' E 005°19'3 6.9
2017-May-18 19:00N 60°23' E 005°12'5 9.7
2017-May-18 18:30N 60°19' E 005°09'510.3
2017-May-18 18:00N 60°14' E 005°10'510.2
2017-May-18 17:29N 60°08' E 005°11'3 6.2
2017-May-18 17:00N 60°06' E 005°13'0 0.0
2017-May-18 16:29N 60°06' E 005°13'0 0.0
2017-May-18 16:00N 60°06' E 005°13'0 0.0
2017-May-18 15:30N 60°06' E 005°13'0 0.0
2017-May-18 15:00N 60°06' E 005°13'5 4.7
2017-May-18 14:00N 60°10' E 005°12'1 1.1
2017-May-18 13:30N 60°10' E 005°13'0 0.0
2017-May-18 13:00N 60°10' E 005°13'2 4.8
2017-May-18 12:30N 60°09' E 005°17'510.0
2017-May-18 12:00N 60°07' E 005°27'510.3
2017-May-18 11:30N 60°08' E 005°37'4 6.5
2017-May-18 10:54N 60°11' E 005°43'1 2.3
2017-May-18 10:29N 60°10' E 005°42'1 1.9
2017-May-18 10:00N 60°09' E 005°42'5 9.8
2017-May-18 09:30N 60°07' E 005°33'510.0
2017-May-18 09:00N 60°06' E 005°23'3 5.7
2017-May-18 08:30N 60°04' E 005°18'0 0.3
2017-May-18 08:00N 60°04' E 005°19'3 6.0
2017-May-18 07:31N 60°01' E 005°19'1 2.3
2017-May-18 06:59N 60°01' E 005°20'5 9.8
2017-May-18 06:31N 59°57' E 005°26'0 0.4
2017-May-18 06:00N 59°57' E 005°26'2 2.4
2017-May-18 05:19N 59°58' E 005°24'2 7.5
2017-May-18 05:00N 59°59' E 005°20'5 9.2
2017-May-18 04:30N 59°57' E 005°12'4 7.2
2017-May-18 04:00N 59°53' E 005°13'4 8.9
2017-May-18 03:30N 59°50' E 005°18'4 8.2
2017-May-18 03:00N 59°46' E 005°22'1 1.2
2017-May-18 02:30N 59°46' E 005°23'0 0.0
2017-May-18 02:00N 59°46' E 005°23'0 0.0
2017-May-18 01:30N 59°46' E 005°23'0 0.0
2017-May-18 01:00N 59°46' E 005°23'0 0.0
2017-May-18 00:30N 59°46' E 005°23'0 0.0
2017-May-18 00:00N 59°46' E 005°23'0 0.0
2017-May-17 23:30N 59°46' E 005°23'0 0.0
2017-May-17 23:00N 59°46' E 005°23'0 0.0
2017-May-17 22:30N 59°46' E 005°23'0 0.0
2017-May-17 22:00N 59°46' E 005°23'0 0.0
2017-May-17 21:30N 59°46' E 005°23'0 0.0
2017-May-17 21:00N 59°46' E 005°23'0 0.0
2017-May-17 20:30N 59°46' E 005°23'0 0.0
2017-May-17 20:00N 59°46' E 005°23'0 0.0
2017-May-17 19:30N 59°46' E 005°23'0 0.0
2017-May-17 18:47N 59°46' E 005°23'0 0.0
2017-May-17 18:30N 59°46' E 005°23'0 0.0
2017-May-17 18:00N 59°46' E 005°23'0 0.0
2017-May-17 17:30N 59°46' E 005°23'0 0.0
2017-May-17 17:00N 59°46' E 005°23'0 0.0
2017-May-17 16:30N 59°46' E 005°23'0 0.0
2017-May-17 16:00N 59°46' E 005°23'0 0.0
2017-May-17 15:30N 59°46' E 005°23'0 0.0
2017-May-17 15:00N 59°46' E 005°23'0 0.0
2017-May-17 14:30N 59°46' E 005°23'  
Track history (hours):
 
Tides and Currents Weather Stations Pressure Air Temp Water Temp Dewpoint Dewpoint Depression Visibility Wind Speed Wind Dir Waves Ship Positions

Hordafor III

Last reported at 2017-May-27 13:30 UTC. Time now 2017-May-27 13:44 UTC.
Position N 63°03' E 007°27'.

Length 50 m; draft 6 m.

Type: Cargo ship. MMSI: 258044000.

Date/timePositionNaut miles runAvg speedWind from/ knotsBaromVisibWave heightAir tempDewpointWater temp
2017-May-27 13:30N 63°03' E 007°27'0 0.0
2017-May-27 13:00N 63°03' E 007°27'0 0.0
2017-May-27 12:30N 63°03' E 007°27'0 0.0
2017-May-27 12:00N 63°03' E 007°27'0 0.0
2017-May-27 11:30N 63°03' E 007°27'0 0.0
2017-May-27 11:00N 63°03' E 007°27'0 0.0
2017-May-27 10:30N 63°03' E 007°27'0 0.1
2017-May-27 10:01N 63°03' E 007°27'4 8.2
2017-May-27 09:30N 63°03' E 007°18'5 9.4
2017-May-27 09:00N 63°01' E 007°08'5 9.4
2017-May-27 08:30N 62°60' E 006°58'5 9.1
2017-May-27 08:00N 62°57' E 006°50'4 8.9
2017-May-27 07:30N 62°53' E 006°44'4 9.1
2017-May-27 07:01N 62°50' E 006°39'5 9.2
2017-May-27 06:30N 62°46' E 006°34'5 9.1
2017-May-27 05:59N 62°42' E 006°28'4 9.1
2017-May-27 05:30N 62°38' E 006°22'5 9.6
2017-May-27 05:00N 62°35' E 006°14'5 9.1
2017-May-27 04:30N 62°31' E 006°09'4 8.8
2017-May-27 04:00N 62°27' E 006°04'4 8.8
2017-May-27 03:30N 62°23' E 006°06'4 8.2
2017-May-27 03:00N 62°19' E 006°04'5 9.9
2017-May-27 02:30N 62°15' E 005°57'5 9.0
2017-May-27 02:00N 62°12' E 005°49'5 9.5
2017-May-27 01:30N 62°11' E 005°40'5 9.6
2017-May-27 00:59N 62°12' E 005°29'4 9.0
2017-May-27 00:30N 62°11' E 005°20'5 9.7
2017-May-27 00:00N 62°13' E 005°12'5 9.4
2017-May-26 23:30N 62°10' E 005°04'510.0
2017-May-26 23:00N 62°05' E 005°07'510.0
2017-May-26 22:30N 62°00' E 005°09'5 9.5
2017-May-26 22:00N 61°56' E 005°07'4 8.6
2017-May-26 21:30N 61°52' E 005°13'3 6.6
2017-May-26 21:01N 61°49' E 005°12'510.4
2017-May-26 20:30N 61°46' E 005°03'510.0
2017-May-26 20:00N 61°42' E 004°58'510.2
2017-May-26 19:30N 61°37' E 004°58'5 9.5
2017-May-26 19:00N 61°32' E 004°60'510.0
2017-May-26 18:30N 61°27' E 004°56'510.6
2017-May-26 18:00N 61°23' E 004°49'510.6
2017-May-26 17:30N 61°18' E 004°48'510.3
2017-May-26 17:00N 61°13' E 004°42'510.3
2017-May-26 16:30N 61°08' E 004°45'510.0
2017-May-26 16:00N 61°03' E 004°44'510.2
2017-May-26 15:30N 60°58' E 004°45'510.4
2017-May-26 15:00N 60°53' E 004°46'1010.0
2017-May-26 14:00N 60°43' E 004°49'510.5
2017-May-26 13:30N 60°38' E 004°53'510.4
2017-May-26 13:01N 60°34' E 004°56'510.4
2017-May-26 12:30N 60°29' E 005°00'510.1
2017-May-26 12:01N 60°25' E 005°06'4 8.7
2017-May-26 11:30N 60°21' E 005°10'4 9.0
2017-May-26 11:00N 60°16' E 005°09'510.3
2017-May-26 10:30N 60°12' E 005°13'510.4
2017-May-26 10:00N 60°07' E 005°18'510.4
2017-May-26 09:30N 60°02' E 005°20'510.4
2017-May-26 09:00N 59°57' E 005°25'1 1.8
2017-May-26 08:30N 59°57' E 005°26'3 5.9
2017-May-26 08:01N 59°59' E 005°22'5 9.3
2017-May-26 07:30N 60°00' E 005°13'3 6.0
2017-May-26 07:00N 60°00' E 005°07'0 0.0
2017-May-26 06:30N 60°00' E 005°07'0 0.0
2017-May-26 06:00N 60°00' E 005°07'0 0.0
2017-May-26 05:30N 60°00' E 005°07'2 4.5
2017-May-26 05:00N 60°02' E 005°09'4 8.1
2017-May-26 04:30N 60°06' E 005°13'0 0.0
2017-May-26 04:00N 60°06' E 005°13'0 0.0
2017-May-26 03:30N 60°06' E 005°13'0 0.0
2017-May-26 03:00N 60°06' E 005°13'0 0.0
2017-May-26 02:29N 60°06' E 005°13'0 0.0
2017-May-26 02:00N 60°06' E 005°13'0 0.0
2017-May-26 01:30N 60°06' E 005°13'0 0.0
2017-May-26 00:59N 60°06' E 005°13'0 0.0
2017-May-26 00:30N 60°06' E 005°13'0 0.0
2017-May-26 00:00N 60°06' E 005°13'0 0.0
2017-May-25 23:30N 60°06' E 005°13'0 0.0
2017-May-25 23:00N 60°06' E 005°13'0 0.0
2017-May-25 22:29N 60°06' E 005°13'0 0.0
2017-May-25 22:00N 60°06' E 005°13'0 0.0
2017-May-25 21:30N 60°06' E 005°13'0 0.0
2017-May-25 21:00N 60°06' E 005°13'0 0.0
2017-May-25 20:30N 60°06' E 005°13'0 0.0
2017-May-25 20:00N 60°06' E 005°13'0 0.0
2017-May-25 19:30N 60°06' E 005°13'0 0.0
2017-May-25 19:00N 60°06' E 005°13'0 0.0
2017-May-25 18:30N 60°06' E 005°13'0 0.0
2017-May-25 18:00N 60°06' E 005°13'0 0.0
2017-May-25 17:30N 60°06' E 005°13'0 0.0
2017-May-25 17:00N 60°06' E 005°13'0 0.0
2017-May-25 16:30N 60°06' E 005°13'0 0.0
2017-May-25 16:00N 60°06' E 005°13'2 3.9
2017-May-25 15:30N 60°04' E 005°10'5 9.7
2017-May-25 15:00N 59°60' E 005°06'1110.6
2017-May-25 14:01N 59°51' E 005°16'510.1
2017-May-25 13:30N 59°46' E 005°21'5 9.8
2017-May-25 13:00N 59°42' E 005°24'510.2
2017-May-25 12:30N 59°37' E 005°18'510.2
2017-May-25 12:00N 59°33' E 005°14'5 9.7
2017-May-25 11:30N 59°28' E 005°13'5 9.1
2017-May-25 11:00N 59°24' E 005°17'5 9.2
2017-May-25 10:30N 59°19' E 005°20'5 9.3
2017-May-25 10:00N 59°15' E 005°22'4 9.1
2017-May-25 09:31N 59°12' E 005°29'510.5
2017-May-25 09:00N 59°10' E 005°38'510.6
2017-May-25 08:30N 59°07' E 005°47'3 6.8
2017-May-25 08:00N 59°04' E 005°50'1 1.3
2017-May-25 07:30N 59°05' E 005°51'510.5
2017-May-25 07:00N 59°10' E 005°53'510.5
2017-May-25 06:30N 59°15' E 005°55'4 7.1
2017-May-25 06:00N 59°18' E 005°59'0 0.4
2017-May-25 05:30N 59°18' E 005°60'4 8.1
2017-May-25 05:00N 59°18' E 005°52'4 8.7
2017-May-25 04:30N 59°16' E 005°44'4 8.4
2017-May-25 04:00N 59°14' E 005°37'4 8.2
2017-May-25 03:30N 59°12' E 005°30'4 8.6
2017-May-25 03:00N 59°15' E 005°25'4 7.4
2017-May-25 02:30N 59°18' E 005°20'5 9.6
2017-May-25 02:00N 59°22' E 005°18'3 7.0
2017-May-25 01:30N 59°25' E 005°14'5 9.9
2017-May-25 01:00N 59°30' E 005°13'5 9.8
2017-May-25 00:30N 59°35' E 005°16'5 9.5
2017-May-25 00:00N 59°39' E 005°20'4 8.9
2017-May-24 23:30N 59°43' E 005°24'510.1
2017-May-24 23:00N 59°48' E 005°20'510.9
2017-May-24 22:30N 59°52' E 005°14'510.7
2017-May-24 22:00N 59°57' E 005°09'4 6.9
2017-May-24 21:30N 60°00' E 005°07'0 0.5
2017-May-24 21:00N 60°00' E 005°07'0 0.0
2017-May-24 20:30N 60°00' E 005°07'0 0.0
2017-May-24 20:00N 60°00' E 005°07'0 0.0
2017-May-24 19:30N 60°00' E 005°07'0 0.0
2017-May-24 19:00N 60°00' E 005°07'0 0.0
2017-May-24 18:29N 60°00' E 005°07'0 0.0
2017-May-24 18:00N 60°00' E 005°07'0 0.0
2017-May-24 17:30N 60°00' E 005°07'0 0.0
2017-May-24 17:00N 60°00' E 005°07'0 0.0
2017-May-24 16:29N 60°00' E 005°07'0 0.0
2017-May-24 16:00N 60°00' E 005°07'0 0.0
2017-May-24 15:30N 60°00' E 005°07'0 0.0
2017-May-24 15:01N 60°00' E 005°07'0 0.0
2017-May-24 14:00N 60°00' E 005°07'0 0.0
2017-May-24 13:30N 60°00' E 005°07'0 0.0
2017-May-24 13:00N 60°00' E 005°07'0 0.0
2017-May-24 12:30N 60°00' E 005°07'0 0.0
2017-May-24 12:00N 60°00' E 005°07'0 0.0
2017-May-24 11:30N 60°00' E 005°07'0 0.0
2017-May-24 11:00N 60°00' E 005°07'0 0.0
2017-May-24 10:30N 60°00' E 005°07'0 0.0
2017-May-24 10:01N 60°00' E 005°07'0 0.0
2017-May-24 09:31N 60°00' E 005°07'0 0.0
2017-May-24 09:00N 60°00' E 005°07'0 0.0
2017-May-24 08:30N 60°00' E 005°07'0 0.0
2017-May-24 08:00N 60°00' E 005°07'0 0.0
2017-May-24 07:30N 60°00' E 005°07'0 0.0
2017-May-24 07:00N 60°00' E 005°07'0 0.0
2017-May-24 06:29N 60°00' E 005°07'0 0.0
2017-May-24 06:00N 60°00' E 005°07'0 0.0
2017-May-24 05:30N 60°00' E 005°07'0 0.0
2017-May-24 05:00N 60°00' E 005°07'0 0.0
2017-May-24 04:29N 60°00' E 005°07'0 0.0
2017-May-24 04:00N 60°00' E 005°07'0 0.0
2017-May-24 03:30N 60°00' E 005°07'0 0.0
2017-May-24 03:00N 60°00' E 005°07'0 0.0
2017-May-24 02:30N 60°00' E 005°07'0 0.0
2017-May-24 02:00N 60°00' E 005°07'0 0.0
2017-May-24 01:30N 60°00' E 005°07'0 0.0
2017-May-24 01:01N 60°00' E 005°07'0 0.0
2017-May-24 00:29N 60°00' E 005°07'0 0.0
2017-May-24 00:00N 60°00' E 005°07'0 0.0
2017-May-23 23:29N 60°00' E 005°07'0 0.0
2017-May-23 23:00N 60°00' E 005°07'0 0.0
2017-May-23 22:30N 60°00' E 005°07'0 0.0
2017-May-23 22:00N 60°00' E 005°07'0 0.1
2017-May-23 21:30N 60°00' E 005°07'0 0.0
2017-May-23 21:00N 60°00' E 005°07'0 0.0
2017-May-23 20:31N 60°00' E 005°07'0 0.0
2017-May-23 20:00N 60°00' E 005°07'0 0.0
2017-May-23 19:30N 60°00' E 005°07'0 0.0
2017-May-23 19:00N 60°00' E 005°07'0 0.1
2017-May-23 18:30N 60°00' E 005°07'0 0.1
2017-May-23 18:00N 60°00' E 005°07'0 0.0
2017-May-23 17:30N 60°00' E 005°07'1 1.6
2017-May-23 17:01N 60°01' E 005°08'5 9.5
2017-May-23 16:30N 60°05' E 005°11'5 9.5
2017-May-23 16:00N 60°10' E 005°11'3 6.6
2017-May-23 15:30N 60°13' E 005°13'1 2.6
2017-May-23 15:00N 60°12' E 005°12'510.2
2017-May-23 14:30N 60°07' E 005°11'5 4.7
2017-May-23 13:30N 60°03' E 005°07'2 4.4
2017-May-23 13:00N 60°05' E 005°07'0 0.0
2017-May-23 12:30N 60°05' E 005°07'0 0.0
2017-May-23 12:00N 60°05' E 005°07'0 0.0
2017-May-23 11:30N 60°05' E 005°07'0 0.0
2017-May-23 11:01N 60°05' E 005°07'0 0.0
2017-May-23 10:30N 60°05' E 005°07'0 0.0
2017-May-23 10:00N 60°05' E 005°07'0 0.0
2017-May-23 09:30N 60°05' E 005°07'0 0.0
2017-May-23 09:00N 60°05' E 005°07'0 0.0
2017-May-23 08:31N 60°05' E 005°07'0 0.0
2017-May-23 08:00N 60°05' E 005°07'0 0.0
2017-May-23 07:30N 60°05' E 005°07'0 0.0
2017-May-23 07:00N 60°05' E 005°07'0 0.0
2017-May-23 06:30N 60°05' E 005°07'2 3.8
2017-May-23 06:00N 60°05' E 005°11'1 2.6
2017-May-23 05:30N 60°06' E 005°13'0 0.0
2017-May-23 05:00N 60°06' E 005°13'0 0.0
2017-May-23 04:30N 60°06' E 005°13'0 0.0
2017-May-23 04:00N 60°06' E 005°13'0 0.0
2017-May-23 03:31N 60°06' E 005°13'0 0.0
2017-May-23 03:00N 60°06' E 005°13'0 0.0
2017-May-23 02:30N 60°06' E 005°13'0 0.0
2017-May-23 02:00N 60°06' E 005°13'0 0.0
2017-May-23 01:30N 60°06' E 005°13'0 0.0
2017-May-23 01:00N 60°06' E 005°13'0 0.0
2017-May-23 00:30N 60°06' E 005°13'0 0.0
2017-May-23 00:00N 60°06' E 005°13'0 0.0
2017-May-22 23:30N 60°06' E 005°13'0 0.0
2017-May-22 22:59N 60°06' E 005°13'0 0.0
2017-May-22 22:30N 60°06' E 005°13'0 0.0
2017-May-22 22:00N 60°06' E 005°13'0 0.0
2017-May-22 21:30N 60°06' E 005°13'0 0.0
2017-May-22 21:00N 60°06' E 005°13'0 0.0
2017-May-22 20:30N 60°06' E 005°13'0 0.0
2017-May-22 20:00N 60°06' E 005°13'0 0.0
2017-May-22 19:30N 60°06' E 005°13'0 0.0
2017-May-22 19:00N 60°06' E 005°13'0 0.0
2017-May-22 18:30N 60°06' E 005°13'0 0.0
2017-May-22 18:00N 60°06' E 005°13'0 0.0
2017-May-22 17:29N 60°06' E 005°13'0 0.0
2017-May-22 17:00N 60°06' E 005°13'0 0.0
2017-May-22 16:30N 60°06' E 005°13'0 0.0
2017-May-22 16:00N 60°06' E 005°13'0 0.0
2017-May-22 15:30N 60°06' E 005°13'0 0.0
2017-May-22 14:59N 60°06' E 005°13'0 0.0
2017-May-22 14:00N 60°06' E 005°13'0 0.0
2017-May-22 13:31N 60°06' E 005°13'2 3.5
2017-May-22 13:00N 60°04' E 005°11'4 8.6
2017-May-22 12:30N 60°01' E 005°05'1 2.7
2017-May-22 11:59N 60°02' E 005°07'4 8.8
2017-May-22 11:29N 59°59' E 005°15'5 9.6
2017-May-22 11:00N 59°58' E 005°24'2 3.9
2017-May-22 10:30N 59°57' E 005°27'1 1.8
2017-May-22 10:00N 59°57' E 005°26'0 0.4
2017-May-22 09:30N 59°57' E 005°26'4 9.2
2017-May-22 09:00N 59°59' E 005°19'510.3
2017-May-22 08:30N 59°56' E 005°11'3 5.9
2017-May-22 08:00N 59°54' E 005°06'0 0.0
2017-May-22 07:30N 59°54' E 005°06'0 0.0
2017-May-22 07:01N 59°54' E 005°06'0 0.0
2017-May-22 06:30N 59°54' E 005°06'0 0.0
2017-May-22 06:00N 59°54' E 005°06'0 0.0
2017-May-22 05:30N 59°54' E 005°06'0 0.8
2017-May-22 05:00N 59°53' E 005°06'4 8.1
2017-May-22 04:30N 59°57' E 005°06'3 5.8
2017-May-22 04:00N 60°00' E 005°07'0 0.1
2017-May-22 03:30N 60°00' E 005°07'0 0.0
2017-May-22 03:00N 60°00' E 005°07'0 0.0
2017-May-22 02:30N 60°00' E 005°07'0 0.0
2017-May-22 02:00N 60°00' E 005°07'0 0.0
2017-May-22 01:30N 60°00' E 005°07'0 0.0
2017-May-22 01:00N 60°00' E 005°07'0 0.0
2017-May-22 00:30N 60°00' E 005°07'0 0.0
2017-May-22 00:00N 60°00' E 005°07'0 0.0
2017-May-21 23:30N 60°00' E 005°07'0 0.0
2017-May-21 23:00N 60°00' E 005°07'0 0.4
2017-May-21 22:30N 60°00' E 005°07'5 9.5
2017-May-21 22:00N 60°05' E 005°11'5 9.6
2017-May-21 21:30N 60°10' E 005°11'5 9.7
2017-May-21 21:00N 60°14' E 005°10'1 1.5
2017-May-21 20:30N 60°15' E 005°11'3 6.7
2017-May-21 20:00N 60°18' E 005°08'5 9.6
2017-May-21 19:30N 60°23' E 005°10'5 9.5
2017-May-21 19:00N 60°26' E 005°02'5 9.5
2017-May-21 18:30N 60°30' E 004°58'5 9.5
2017-May-21 18:00N 60°35' E 004°54'5 9.8
2017-May-21 17:29N 60°39' E 004°51'510.0
2017-May-21 17:00N 60°44' E 004°48'510.0
2017-May-21 16:30N 60°49' E 004°44'4 8.1
2017-May-21 16:00N 60°51' E 004°51'2 4.4
2017-May-21 15:29N 60°54' E 004°50'0 0.0
2017-May-21 15:00N 60°54' E 004°50'2 2.4
2017-May-21 14:00N 60°51' E 004°50'4 8.6
2017-May-21 13:30N 60°47' E 004°46'510.5
2017-May-21 13:00N 60°43' E 004°51'510.6
2017-May-21 12:30N 60°38' E 004°56'510.0
2017-May-21 12:00N 60°36' E 005°06'510.4
2017-May-21 11:30N 60°33' E 005°14'5 9.6
2017-May-21 11:00N 60°31' E 005°22'2 3.3
2017-May-21 10:30N 60°30' E 005°26'0 0.0
2017-May-21 10:00N 60°30' E 005°26'0 0.0
2017-May-21 09:30N 60°30' E 005°26'0 0.0
2017-May-21 09:00N 60°30' E 005°26'0 0.0
2017-May-21 08:30N 60°30' E 005°26'2 3.8
2017-May-21 08:00N 60°31' E 005°22'4 7.1
2017-May-21 07:30N 60°30' E 005°15'5 9.3
2017-May-21 07:00N 60°25' E 005°17'2 3.1
2017-May-21 06:30N 60°24' E 005°19'0 0.0
2017-May-21 06:00N 60°24' E 005°19'0 0.0
2017-May-21 05:30N 60°24' E 005°19'0 0.0
2017-May-21 05:00N 60°24' E 005°19'0 0.0
2017-May-21 04:30N 60°24' E 005°19'0 0.0
2017-May-21 04:00N 60°24' E 005°19'0 0.0
2017-May-21 03:30N 60°24' E 005°19'0 0.0
2017-May-21 03:00N 60°24' E 005°19'0 0.0
2017-May-21 02:30N 60°24' E 005°19'0 0.0
2017-May-21 02:00N 60°24' E 005°19'0 0.0
2017-May-21 01:30N 60°24' E 005°19'0 0.0
2017-May-21 01:00N 60°24' E 005°19'0 0.0
2017-May-21 00:30N 60°24' E 005°19'0 0.0
2017-May-21 00:00N 60°24' E 005°19'0 0.0
2017-May-20 23:30N 60°24' E 005°19'0 0.0
2017-May-20 23:00N 60°24' E 005°19'0 0.0
2017-May-20 22:31N 60°24' E 005°19'0 0.0
2017-May-20 22:00N 60°24' E 005°19'0 0.0
2017-May-20 21:31N 60°24' E 005°19'0 0.0
2017-May-20 21:00N 60°24' E 005°19'0 0.0
2017-May-20 20:31N 60°24' E 005°19'0 0.0
2017-May-20 20:01N 60°24' E 005°19'0 0.0
2017-May-20 19:31N 60°24' E 005°19'0 0.0
2017-May-20 19:00N 60°24' E 005°19'0 0.0
2017-May-20 18:30N 60°24' E 005°19'0 0.0
2017-May-20 18:00N 60°24' E 005°19'0 0.0
2017-May-20 17:30N 60°24' E 005°19'0 0.0
2017-May-20 17:00N 60°24' E 005°19'0 0.0
2017-May-20 16:30N 60°24' E 005°19'0 0.0
2017-May-20 16:00N 60°24' E 005°19'0 0.0
2017-May-20 15:30N 60°24' E 005°19'0 0.0
2017-May-20 15:00N 60°24' E 005°19'0 0.0
2017-May-20 14:30N 60°24' E 005°19'0 0.0
2017-May-20 13:30N 60°24' E 005°19'0 0.0
2017-May-20 13:00N 60°24' E 005°19'0 0.0
2017-May-20 12:30N 60°24' E 005°19'0 0.0
2017-May-20 12:00N 60°24' E 005°19'0 0.0
2017-May-20 11:30N 60°24' E 005°19'0 0.0
2017-May-20 11:00N 60°24' E 005°19'0 0.0
2017-May-20 10:30N 60°24' E 005°19'0 0.0
2017-May-20 10:00N 60°24' E 005°19'0 0.0
2017-May-20 09:30N 60°24' E 005°19'0 0.0
2017-May-20 09:00N 60°24' E 005°19'0 0.0
2017-May-20 08:30N 60°24' E 005°19'0 0.0
2017-May-20 08:00N 60°24' E 005°19'0 0.0
2017-May-20 07:30N 60°24' E 005°19'0 0.0
2017-May-20 07:00N 60°24' E 005°19'0 0.0
2017-May-20 06:30N 60°24' E 005°19'0 0.0
2017-May-20 06:00N 60°24' E 005°19'0 0.0
2017-May-20 05:30N 60°24' E 005°19'0 0.0
2017-May-20 05:01N 60°24' E 005°19'0 0.0
2017-May-20 04:30N 60°24' E 005°19'0 0.0
2017-May-20 04:01N 60°24' E 005°19'0 0.0
2017-May-20 03:31N 60°24' E 005°19'0 0.0
2017-May-20 03:00N 60°24' E 005°19'0 0.0
2017-May-20 02:31N 60°24' E 005°19'0 0.0
2017-May-20 02:00N 60°24' E 005°19'0 0.0
2017-May-20 01:30N 60°24' E 005°19'0 0.0
2017-May-20 01:00N 60°24' E 005°19'0 0.0
2017-May-20 00:30N 60°24' E 005°19'0 0.0
2017-May-19 23:59N 60°24' E 005°19'0 0.0
2017-May-19 23:30N 60°24' E 005°19'0 0.0
2017-May-19 23:00N 60°24' E 005°19'0 0.0
2017-May-19 22:31N 60°24' E 005°19'0 0.0
2017-May-19 22:00N 60°24' E 005°19'0 0.0
2017-May-19 21:30N 60°24' E 005°19'0 0.0
2017-May-19 21:00N 60°24' E 005°19'0 0.0
2017-May-19 20:30N 60°24' E 005°19'0 0.0
2017-May-19 20:00N 60°24' E 005°19'0 0.0
2017-May-19 19:30N 60°24' E 005°19'0 0.0
2017-May-19 19:00N 60°24' E 005°19'0 0.0
2017-May-19 18:30N 60°24' E 005°19'0 0.0
2017-May-19 18:00N 60°24' E 005°19'0 0.0
2017-May-19 17:30N 60°24' E 005°19'0 0.8
2017-May-19 17:00N 60°24' E 005°18'5 8.9
2017-May-19 16:30N 60°22' E 005°10'5 9.8
2017-May-19 16:00N 60°17' E 005°09'2 4.5
2017-May-19 15:29N 60°15' E 005°11'0 0.0
2017-May-19 15:00N 60°15' E 005°11'8 7.6
2017-May-19 14:00N 60°23' E 005°10'5 9.4
2017-May-19 13:30N 60°24' E 005°19'0 0.3
2017-May-19 13:00N 60°24' E 005°19'0 0.0
2017-May-19 12:30N 60°24' E 005°19'0 0.0
2017-May-19 12:00N 60°24' E 005°19'0 0.0
2017-May-19 11:30N 60°24' E 005°19'0 0.0
2017-May-19 11:00N 60°24' E 005°19'0 0.0
2017-May-19 10:30N 60°24' E 005°19'0 0.0
2017-May-19 10:00N 60°24' E 005°19'0 0.0
2017-May-19 09:30N 60°24' E 005°19'0 0.0
2017-May-19 09:00N 60°24' E 005°19'0 0.0
2017-May-19 08:30N 60°24' E 005°19'0 0.0
2017-May-19 08:01N 60°24' E 005°19'0 0.0
2017-May-19 07:31N 60°24' E 005°19'0 0.0
2017-May-19 07:00N 60°24' E 005°19'0 0.0
2017-May-19 06:31N 60°24' E 005°19'0 0.0
2017-May-19 06:01N 60°24' E 005°19'0 0.0
2017-May-19 05:31N 60°24' E 005°19'0 0.0
2017-May-19 05:01N 60°24' E 005°19'0 0.0
2017-May-19 04:31N 60°24' E 005°19'0 0.0
2017-May-19 04:01N 60°24' E 005°19'0 0.0
2017-May-19 03:30N 60°24' E 005°19'0 0.0
2017-May-19 03:00N 60°24' E 005°19'0 0.0
2017-May-19 02:30N 60°24' E 005°19'0 0.0
2017-May-19 02:00N 60°24' E 005°19'0 0.0
2017-May-19 01:31N 60°24' E 005°19'0 0.0
2017-May-19 01:00N 60°24' E 005°19'0 0.0
2017-May-19 00:30N 60°24' E 005°19'0 0.0
2017-May-19 00:00N 60°24' E 005°19'0 0.0
2017-May-18 23:30N 60°24' E 005°19'0 0.0
2017-May-18 23:00N 60°24' E 005°19'0 0.0
2017-May-18 22:30N 60°24' E 005°19'0 0.0
2017-May-18 22:00N 60°24' E 005°19'0 0.0
2017-May-18 21:30N 60°24' E 005°19'0 0.0
2017-May-18 21:00N 60°24' E 005°19'0 0.0
2017-May-18 20:30N 60°24' E 005°19'0 0.0
2017-May-18 20:00N 60°24' E 005°19'0 0.0
2017-May-18 19:30N 60°24' E 005°19'3 6.9
2017-May-18 19:00N 60°23' E 005°12'5 9.7
2017-May-18 18:30N 60°19' E 005°09'510.3
2017-May-18 18:00N 60°14' E 005°10'510.2
2017-May-18 17:29N 60°08' E 005°11'3 6.2
2017-May-18 17:00N 60°06' E 005°13'0 0.0
2017-May-18 16:29N 60°06' E 005°13'0 0.0
2017-May-18 16:00N 60°06' E 005°13'0 0.0
2017-May-18 15:30N 60°06' E 005°13'0 0.0
2017-May-18 15:00N 60°06' E 005°13'5 4.7
2017-May-18 14:00N 60°10' E 005°12'1 1.1
2017-May-18 13:30N 60°10' E 005°13'0 0.0
2017-May-18 13:00N 60°10' E 005°13'2 4.8
2017-May-18 12:30N 60°09' E 005°17'510.0
2017-May-18 12:00N 60°07' E 005°27'510.3
2017-May-18 11:30N 60°08' E 005°37'4 6.5
2017-May-18 10:54N 60°11' E 005°43'1 2.3
2017-May-18 10:29N 60°10' E 005°42'1 1.9
2017-May-18 10:00N 60°09' E 005°42'5 9.8
2017-May-18 09:30N 60°07' E 005°33'510.0
2017-May-18 09:00N 60°06' E 005°23'3 5.7
2017-May-18 08:30N 60°04' E 005°18'0 0.3
2017-May-18 08:00N 60°04' E 005°19'3 6.0
2017-May-18 07:31N 60°01' E 005°19'1 2.3
2017-May-18 06:59N 60°01' E 005°20'5 9.8
2017-May-18 06:31N 59°57' E 005°26'0 0.4
2017-May-18 06:00N 59°57' E 005°26'2 2.4
2017-May-18 05:19N 59°58' E 005°24'2 7.5
2017-May-18 05:00N 59°59' E 005°20'5 9.2
2017-May-18 04:30N 59°57' E 005°12'4 7.2
2017-May-18 04:00N 59°53' E 005°13'4 8.9
2017-May-18 03:30N 59°50' E 005°18'4 8.2
2017-May-18 03:00N 59°46' E 005°22'1 1.2
2017-May-18 02:30N 59°46' E 005°23'0 0.0
2017-May-18 02:00N 59°46' E 005°23'0 0.0
2017-May-18 01:30N 59°46' E 005°23'0 0.0
2017-May-18 01:00N 59°46' E 005°23'0 0.0
2017-May-18 00:30N 59°46' E 005°23'0 0.0
2017-May-18 00:00N 59°46' E 005°23'0 0.0
2017-May-17 23:30N 59°46' E 005°23'0 0.0
2017-May-17 23:00N 59°46' E 005°23'0 0.0
2017-May-17 22:30N 59°46' E 005°23'0 0.0
2017-May-17 22:00N 59°46' E 005°23'0 0.0
2017-May-17 21:30N 59°46' E 005°23'0 0.0
2017-May-17 21:00N 59°46' E 005°23'0 0.0
2017-May-17 20:30N 59°46' E 005°23'0 0.0
2017-May-17 20:00N 59°46' E 005°23'0 0.0
2017-May-17 19:30N 59°46' E 005°23'0 0.0
2017-May-17 18:47N 59°46' E 005°23'0 0.0
2017-May-17 18:30N 59°46' E 005°23'0 0.0
2017-May-17 18:00N 59°46' E 005°23'0 0.0
2017-May-17 17:30N 59°46' E 005°23'0 0.0
2017-May-17 17:00N 59°46' E 005°23'0 0.0
2017-May-17 16:30N 59°46' E 005°23'0 0.0
2017-May-17 16:00N 59°46' E 005°23'0 0.0
2017-May-17 15:30N 59°46' E 005°23'0 0.0
2017-May-17 15:00N 59°46' E 005°23'0 0.0
2017-May-17 14:30N 59°46' E 005°23'  

Dump ship's entire track history